sensor_id;sensor_type;location;lat;lon;timestamp;pressure;altitude;pressure_sealevel;temperature;humidity
2875;BME280;1445;52.600;13.328;2023-04-27T00:01:16;101153.72;;;6.38;100.00
2875;BME280;1445;52.600;13.328;2023-04-27T00:03:42;101141.69;;;6.39;100.00
2875;BME280;1445;52.600;13.328;2023-04-27T00:06:07;101145.13;;;6.24;100.00
2875;BME280;1445;52.600;13.328;2023-04-27T00:08:34;101149.84;;;6.29;100.00
2875;BME280;1445;52.600;13.328;2023-04-27T00:10:59;101146.53;;;6.32;100.00
2875;BME280;1445;52.600;13.328;2023-04-27T00:13:25;101135.34;;;6.33;100.00
2875;BME280;1445;52.600;13.328;2023-04-27T00:15:51;101138.66;;;6.35;100.00
2875;BME280;1445;52.600;13.328;2023-04-27T00:18:17;101139.41;;;6.26;100.00
2875;BME280;1445;52.600;13.328;2023-04-27T00:20:42;101135.28;;;6.23;100.00
2875;BME280;1445;52.600;13.328;2023-04-27T00:23:08;101142.38;;;6.24;100.00
2875;BME280;1445;52.600;13.328;2023-04-27T00:25:34;101141.63;;;6.29;100.00
2875;BME280;1445;52.600;13.328;2023-04-27T00:27:59;101138.31;;;6.27;100.00
2875;BME280;1445;52.600;13.328;2023-04-27T00:30:25;101147.66;;;6.31;100.00
2875;BME280;1445;52.600;13.328;2023-04-27T00:32:50;101141.84;;;6.22;100.00
2875;BME280;1445;52.600;13.328;2023-04-27T00:35:16;101145.41;;;6.22;100.00
2875;BME280;1445;52.600;13.328;2023-04-27T00:37:41;101146.50;;;6.21;100.00
2875;BME280;1445;52.600;13.328;2023-04-27T00:40:07;101147.09;;;6.29;100.00
2875;BME280;1445;52.600;13.328;2023-04-27T00:42:35;101144.38;;;6.29;100.00
2875;BME280;1445;52.600;13.328;2023-04-27T00:45:01;101150.81;;;6.17;100.00
2875;BME280;1445;52.600;13.328;2023-04-27T00:47:28;101146.41;;;6.11;100.00
2875;BME280;1445;52.600;13.328;2023-04-27T00:49:54;101145.31;;;6.12;100.00
2875;BME280;1445;52.600;13.328;2023-04-27T00:52:20;101152.44;;;6.13;100.00
2875;BME280;1445;52.600;13.328;2023-04-27T00:54:48;101156.91;;;6.25;100.00
2875;BME280;1445;52.600;13.328;2023-04-27T00:57:14;101159.03;;;6.17;100.00
2875;BME280;1445;52.600;13.328;2023-04-27T00:59:40;101158.50;;;6.15;100.00
2875;BME280;1445;52.600;13.328;2023-04-27T01:02:05;101155.78;;;6.20;100.00
2875;BME280;1445;52.600;13.328;2023-04-27T01:04:31;101168.41;;;6.21;100.00
2875;BME280;1445;52.600;13.328;2023-04-27T01:06:57;101161.78;;;6.17;100.00
2875;BME280;1445;52.600;13.328;2023-04-27T01:09:23;101163.69;;;6.17;100.00
2875;BME280;1445;52.600;13.328;2023-04-27T01:11:48;101164.69;;;6.06;100.00
2875;BME280;1445;52.600;13.328;2023-04-27T01:14:14;101171.50;;;6.03;100.00
2875;BME280;1445;52.600;13.328;2023-04-27T01:16:39;101166.03;;;6.03;100.00
2875;BME280;1445;52.600;13.328;2023-04-27T01:19:06;101168.03;;;6.13;100.00
2875;BME280;1445;52.600;13.328;2023-04-27T01:21:31;101174.66;;;6.17;100.00
2875;BME280;1445;52.600;13.328;2023-04-27T01:23:57;101169.66;;;6.09;100.00
2875;BME280;1445;52.600;13.328;2023-04-27T01:26:22;101174.03;;;6.10;100.00
2875;BME280;1445;52.600;13.328;2023-04-27T01:28:48;101173.81;;;6.16;100.00
2875;BME280;1445;52.600;13.328;2023-04-27T01:31:13;101175.72;;;6.11;100.00
2875;BME280;1445;52.600;13.328;2023-04-27T01:33:40;101182.47;;;6.03;100.00
2875;BME280;1445;52.600;13.328;2023-04-27T01:36:06;101178.09;;;6.02;100.00
2875;BME280;1445;52.600;13.328;2023-04-27T01:38:32;101183.44;;;5.92;100.00
2875;BME280;1445;52.600;13.328;2023-04-27T01:40:58;101184.66;;;6.01;100.00
2875;BME280;1445;52.600;13.328;2023-04-27T01:43:29;101177.75;;;5.93;100.00
2875;BME280;1445;52.600;13.328;2023-04-27T01:45:55;101186.25;;;5.97;100.00
2875;BME280;1445;52.600;13.328;2023-04-27T01:48:21;101192.88;;;6.01;100.00
2875;BME280;1445;52.600;13.328;2023-04-27T01:50:47;101187.91;;;5.98;100.00
2875;BME280;1445;52.600;13.328;2023-04-27T01:53:12;101186.28;;;6.02;100.00
2875;BME280;1445;52.600;13.328;2023-04-27T01:55:37;101190.72;;;6.08;100.00
2875;BME280;1445;52.600;13.328;2023-04-27T01:58:03;101201.06;;;6.01;100.00
2875;BME280;1445;52.600;13.328;2023-04-27T02:00:28;101189.03;;;6.02;100.00
2875;BME280;1445;52.600;13.328;2023-04-27T02:02:54;101192.66;;;6.08;100.00
2875;BME280;1445;52.600;13.328;2023-04-27T02:05:22;101193.09;;;6.00;100.00
2875;BME280;1445;52.600;13.328;2023-04-27T02:07:48;101198.78;;;5.93;100.00
2875;BME280;1445;52.600;13.328;2023-04-27T02:10:14;101197.63;;;5.89;100.00
2875;BME280;1445;52.600;13.328;2023-04-27T02:12:40;101207.06;;;5.98;100.00
2875;BME280;1445;52.600;13.328;2023-04-27T02:15:06;101203.31;;;5.82;100.00
2875;BME280;1445;52.600;13.328;2023-04-27T02:17:33;101208.56;;;5.89;100.00
2875;BME280;1445;52.600;13.328;2023-04-27T02:19:58;101215.44;;;5.91;100.00
2875;BME280;1445;52.600;13.328;2023-04-27T02:22:24;101214.16;;;5.72;100.00
2875;BME280;1445;52.600;13.328;2023-04-27T02:24:49;101209.97;;;5.91;100.00
2875;BME280;1445;52.600;13.328;2023-04-27T02:27:15;101217.78;;;5.78;100.00
2875;BME280;1445;52.600;13.328;2023-04-27T02:29:40;101209.53;;;5.72;100.00
2875;BME280;1445;52.600;13.328;2023-04-27T02:32:05;101211.72;;;5.75;100.00
2875;BME280;1445;52.600;13.328;2023-04-27T02:34:31;101220.81;;;5.81;100.00
2875;BME280;1445;52.600;13.328;2023-04-27T02:36:56;101213.19;;;5.83;100.00
2875;BME280;1445;52.600;13.328;2023-04-27T02:39:21;101220.91;;;5.64;100.00
2875;BME280;1445;52.600;13.328;2023-04-27T02:41:47;101216.53;;;5.63;100.00
2875;BME280;1445;52.600;13.328;2023-04-27T02:44:12;101216.31;;;5.70;100.00
2875;BME280;1445;52.600;13.328;2023-04-27T02:46:38;101224.22;;;5.66;100.00
2875;BME280;1445;52.600;13.328;2023-04-27T02:49:03;101222.63;;;5.70;100.00
2875;BME280;1445;52.600;13.328;2023-04-27T02:51:28;101228.72;;;5.78;100.00
2875;BME280;1445;52.600;13.328;2023-04-27T02:53:54;101227.47;;;5.63;100.00
2875;BME280;1445;52.600;13.328;2023-04-27T02:56:20;101220.91;;;5.64;100.00
2875;BME280;1445;52.600;13.328;2023-04-27T02:58:45;101223.09;;;5.62;100.00
2875;BME280;1445;52.600;13.328;2023-04-27T03:01:13;101226.88;;;5.61;100.00
2875;BME280;1445;52.600;13.328;2023-04-27T03:03:39;101231.22;;;5.57;100.00
2875;BME280;1445;52.600;13.328;2023-04-27T03:06:05;101234.78;;;5.58;100.00
2875;BME280;1445;52.600;13.328;2023-04-27T03:08:31;101223.84;;;5.58;100.00
2875;BME280;1445;52.600;13.328;2023-04-27T03:10:56;101227.94;;;5.55;100.00
2875;BME280;1445;52.600;13.328;2023-04-27T03:13:22;101227.63;;;5.52;100.00
2875;BME280;1445;52.600;13.328;2023-04-27T03:15:47;101226.38;;;5.64;100.00
2875;BME280;1445;52.600;13.328;2023-04-27T03:18:13;101227.94;;;5.55;100.00
2875;BME280;1445;52.600;13.328;2023-04-27T03:20:38;101222.59;;;5.43;100.00
2875;BME280;1445;52.600;13.328;2023-04-27T03:23:04;101232.19;;;5.46;100.00
2875;BME280;1445;52.600;13.328;2023-04-27T03:25:29;101230.53;;;5.45;100.00
2875;BME280;1445;52.600;13.328;2023-04-27T03:27:55;101236.66;;;5.52;100.00
2875;BME280;1445;52.600;13.328;2023-04-27T03:30:21;101231.91;;;5.47;100.00
2875;BME280;1445;52.600;13.328;2023-04-27T03:32:46;101238.06;;;5.55;100.00
2875;BME280;1445;52.600;13.328;2023-04-27T03:35:12;101242.44;;;5.56;100.00
2875;BME280;1445;52.600;13.328;2023-04-27T03:37:37;101239.63;;;5.50;100.00
2875;BME280;1445;52.600;13.328;2023-04-27T03:40:03;101253.19;;;5.62;100.00
2875;BME280;1445;52.600;13.328;2023-04-27T03:42:31;101251.19;;;5.58;100.00
2875;BME280;1445;52.600;13.328;2023-04-27T03:44:57;101253.19;;;5.62;100.00
2875;BME280;1445;52.600;13.328;2023-04-27T03:47:22;101254.22;;;5.61;100.00
2875;BME280;1445;52.600;13.328;2023-04-27T03:49:47;101259.38;;;5.58;100.00
2875;BME280;1445;52.600;13.328;2023-04-27T03:52:13;101261.81;;;5.54;100.00
2875;BME280;1445;52.600;13.328;2023-04-27T03:54:38;101258.25;;;5.54;100.00
2875;BME280;1445;52.600;13.328;2023-04-27T03:57:04;101256.94;;;5.56;100.00
2875;BME280;1445;52.600;13.328;2023-04-27T03:59:29;101266.78;;;5.57;100.00
2875;BME280;1445;52.600;13.328;2023-04-27T04:01:55;101264.19;;;5.45;100.00
2875;BME280;1445;52.600;13.328;2023-04-27T04:04:22;101262.78;;;5.43;100.00
2875;BME280;1445;52.600;13.328;2023-04-27T04:06:47;101266.91;;;5.45;100.00
2875;BME280;1445;52.600;13.328;2023-04-27T04:09:13;101267.47;;;5.47;100.00
2875;BME280;1445;52.600;13.328;2023-04-27T04:11:38;101265.41;;;5.55;100.00
2875;BME280;1445;52.600;13.328;2023-04-27T04:14:03;101272.75;;;5.54;100.00
2875;BME280;1445;52.600;13.328;2023-04-27T04:16:29;101279.38;;;5.58;100.00
2875;BME280;1445;52.600;13.328;2023-04-27T04:18:54;101279.13;;;5.60;100.00
2875;BME280;1445;52.600;13.328;2023-04-27T04:21:20;101281.97;;;5.70;100.00
2875;BME280;1445;52.600;13.328;2023-04-27T04:23:45;101276.34;;;5.55;100.00
2875;BME280;1445;52.600;13.328;2023-04-27T04:26:11;101279.25;;;5.48;100.00
2875;BME280;1445;52.600;13.328;2023-04-27T04:28:37;101276.03;;;5.51;100.00
2875;BME280;1445;52.600;13.328;2023-04-27T04:31:03;101282.34;;;5.57;100.00
2875;BME280;1445;52.600;13.328;2023-04-27T04:33:29;101285.72;;;5.64;100.00
2875;BME280;1445;52.600;13.328;2023-04-27T04:35:55;101284.31;;;5.83;100.00
2875;BME280;1445;52.600;13.328;2023-04-27T04:38:20;101287.06;;;5.83;100.00
2875;BME280;1445;52.600;13.328;2023-04-27T04:40:47;101291.41;;;5.79;100.00
2875;BME280;1445;52.600;13.328;2023-04-27T04:43:14;101283.19;;;5.79;100.00
2875;BME280;1445;52.600;13.328;2023-04-27T04:45:39;101292.16;;;5.74;100.00
2875;BME280;1445;52.600;13.328;2023-04-27T04:48:05;101293.78;;;5.75;100.00
2875;BME280;1445;52.600;13.328;2023-04-27T04:50:30;101294.31;;;5.72;100.00
2875;BME280;1445;52.600;13.328;2023-04-27T04:52:55;101299.47;;;5.69;100.00
2875;BME280;1445;52.600;13.328;2023-04-27T04:55:21;101301.25;;;5.80;100.00
2875;BME280;1445;52.600;13.328;2023-04-27T04:57:46;101296.97;;;5.67;100.00
2875;BME280;1445;52.600;13.328;2023-04-27T05:00:12;101303.16;;;5.80;100.00
2875;BME280;1445;52.600;13.328;2023-04-27T05:02:39;101293.16;;;5.68;100.00
2875;BME280;1445;52.600;13.328;2023-04-27T05:05:05;101306.84;;;5.90;100.00
2875;BME280;1445;52.600;13.328;2023-04-27T05:07:31;101300.94;;;5.77;100.00
2875;BME280;1445;52.600;13.328;2023-04-27T05:09:57;101308.31;;;5.76;100.00
2875;BME280;1445;52.600;13.328;2023-04-27T05:12:22;101307.84;;;5.84;100.00
2875;BME280;1445;52.600;13.328;2023-04-27T05:14:47;101304.19;;;5.73;100.00
2875;BME280;1445;52.600;13.328;2023-04-27T05:17:13;101307.41;;;5.92;100.00
2875;BME280;1445;52.600;13.328;2023-04-27T05:19:39;101309.78;;;5.84;100.00
2875;BME280;1445;52.600;13.328;2023-04-27T05:22:04;101306.56;;;5.92;100.00
2875;BME280;1445;52.600;13.328;2023-04-27T05:24:29;101310.41;;;5.91;100.00
2875;BME280;1445;52.600;13.328;2023-04-27T05:26:55;101308.88;;;6.00;100.00
2875;BME280;1445;52.600;13.328;2023-04-27T05:29:21;101315.00;;;6.07;100.00
2875;BME280;1445;52.600;13.328;2023-04-27T05:31:46;101308.75;;;5.90;100.00
2875;BME280;1445;52.600;13.328;2023-04-27T05:34:12;101307.34;;;6.09;100.00
2875;BME280;1445;52.600;13.328;2023-04-27T05:36:38;101308.81;;;5.95;100.00
2875;BME280;1445;52.600;13.328;2023-04-27T05:39:03;101309.44;;;6.02;100.00
2875;BME280;1445;52.600;13.328;2023-04-27T05:41:29;101309.44;;;6.02;100.00
2875;BME280;1445;52.600;13.328;2023-04-27T05:43:54;101319.25;;;5.98;100.00
2875;BME280;1445;52.600;13.328;2023-04-27T05:46:20;101313.09;;;6.08;100.00
2875;BME280;1445;52.600;13.328;2023-04-27T05:48:45;101314.22;;;5.90;100.00
2875;BME280;1445;52.600;13.328;2023-04-27T05:51:11;101312.50;;;5.84;100.00
2875;BME280;1445;52.600;13.328;2023-04-27T05:53:37;101315.94;;;5.96;100.00
2875;BME280;1445;52.600;13.328;2023-04-27T05:56:03;101315.75;;;5.81;100.00
2875;BME280;1445;52.600;13.328;2023-04-27T05:58:31;101329.78;;;5.89;100.00
2875;BME280;1445;52.600;13.328;2023-04-27T06:00:56;101315.88;;;5.91;100.00
2875;BME280;1445;52.600;13.328;2023-04-27T06:03:22;101328.28;;;5.98;100.00
2875;BME280;1445;52.600;13.328;2023-04-27T06:05:53;101327.69;;;6.18;100.00
2875;BME280;1445;52.600;13.328;2023-04-27T06:08:19;101331.47;;;6.12;100.00
2875;BME280;1445;52.600;13.328;2023-04-27T06:10:44;101325.19;;;6.17;100.00
2875;BME280;1445;52.600;13.328;2023-04-27T06:13:10;101330.00;;;6.05;100.00
2875;BME280;1445;52.600;13.328;2023-04-27T06:15:35;101332.44;;;6.28;100.00
2875;BME280;1445;52.600;13.328;2023-04-27T06:18:01;101334.63;;;6.26;100.00
2875;BME280;1445;52.600;13.328;2023-04-27T06:20:26;101333.22;;;6.24;100.00
2875;BME280;1445;52.600;13.328;2023-04-27T06:22:52;101331.06;;;6.26;100.00
2875;BME280;1445;52.600;13.328;2023-04-27T06:25:17;101333.59;;;6.32;100.00
2875;BME280;1445;52.600;13.328;2023-04-27T06:27:42;101339.09;;;6.37;100.00
2875;BME280;1445;52.600;13.328;2023-04-27T06:30:08;101332.31;;;6.45;100.00
2875;BME280;1445;52.600;13.328;2023-04-27T06:32:34;101331.63;;;6.60;100.00
2875;BME280;1445;52.600;13.328;2023-04-27T06:34:59;101343.38;;;6.55;100.00
2875;BME280;1445;52.600;13.328;2023-04-27T06:37:25;101335.16;;;6.55;100.00
2875;BME280;1445;52.600;13.328;2023-04-27T06:39:51;101334.75;;;6.74;100.00
2875;BME280;1445;52.600;13.328;2023-04-27T06:42:16;101340.50;;;6.67;100.00
2875;BME280;1445;52.600;13.328;2023-04-27T06:44:41;101347.22;;;6.54;100.00
2875;BME280;1445;52.600;13.328;2023-04-27T06:47:07;101343.97;;;6.57;100.00
2875;BME280;1445;52.600;13.328;2023-04-27T06:49:32;101327.31;;;6.64;100.00
2875;BME280;1445;52.600;13.328;2023-04-27T06:52:00;101344.00;;;6.62;100.00
2875;BME280;1445;52.600;13.328;2023-04-27T06:54:26;101339.34;;;6.63;100.00
2875;BME280;1445;52.600;13.328;2023-04-27T06:56:52;101341.31;;;6.67;100.00
2875;BME280;1445;52.600;13.328;2023-04-27T06:59:19;101333.47;;;6.81;100.00
2875;BME280;1445;52.600;13.328;2023-04-27T07:01:44;101340.19;;;7.01;100.00
2875;BME280;1445;52.600;13.328;2023-04-27T07:04:10;101347.91;;;7.09;100.00
2875;BME280;1445;52.600;13.328;2023-04-27T07:06:35;101339.69;;;7.09;100.00
2875;BME280;1445;52.600;13.328;2023-04-27T07:09:01;101342.63;;;7.39;100.00
2875;BME280;1445;52.600;13.328;2023-04-27T07:11:29;101330.91;;;7.54;100.00
2875;BME280;1445;52.600;13.328;2023-04-27T07:13:54;101332.69;;;7.81;100.00
2875;BME280;1445;52.600;13.328;2023-04-27T07:16:20;101342.56;;;7.82;100.00
2875;BME280;1445;52.600;13.328;2023-04-27T07:18:45;101345.09;;;7.94;100.00
2875;BME280;1445;52.600;13.328;2023-04-27T07:21:11;101338.38;;;7.64;100.00
2875;BME280;1445;52.600;13.328;2023-04-27T07:23:39;101344.16;;;7.68;100.00
2875;BME280;1445;52.600;13.328;2023-04-27T07:26:07;101346.31;;;7.60;100.00
2875;BME280;1445;52.600;13.328;2023-04-27T07:28:34;101340.53;;;7.52;100.00
2875;BME280;1445;52.600;13.328;2023-04-27T07:30:59;101342.50;;;7.67;100.00
2875;BME280;1445;52.600;13.328;2023-04-27T07:33:25;101337.16;;;7.97;100.00
2875;BME280;1445;52.600;13.328;2023-04-27T07:35:54;101336.56;;;7.90;100.00
2875;BME280;1445;52.600;13.328;2023-04-27T07:38:20;101345.41;;;8.18;100.00
2875;BME280;1445;52.600;13.328;2023-04-27T07:40:46;101336.94;;;8.19;100.00
2875;BME280;1445;52.600;13.328;2023-04-27T07:43:11;101347.63;;;8.21;100.00
2875;BME280;1445;52.600;13.328;2023-04-27T07:45:37;101350.63;;;8.04;100.00
2875;BME280;1445;52.600;13.328;2023-04-27T07:48:05;101354.16;;;7.94;100.00
2875;BME280;1445;52.600;13.328;2023-04-27T07:50:31;101348.66;;;7.94;100.00
2875;BME280;1445;52.600;13.328;2023-04-27T07:52:57;101356.66;;;8.06;100.00
2875;BME280;1445;52.600;13.328;2023-04-27T07:55:23;101351.97;;;8.06;100.00
2875;BME280;1445;52.600;13.328;2023-04-27T07:57:54;101349.28;;;8.27;100.00
2875;BME280;1445;52.600;13.328;2023-04-27T08:00:20;101351.00;;;8.38;100.00
2875;BME280;1445;52.600;13.328;2023-04-27T08:02:46;101359.44;;;8.21;100.00
2875;BME280;1445;52.600;13.328;2023-04-27T08:05:11;101356.25;;;8.50;100.00
2875;BME280;1445;52.600;13.328;2023-04-27T08:07:37;101352.69;;;8.70;100.00
2875;BME280;1445;52.600;13.328;2023-04-27T08:10:03;101357.94;;;8.81;100.00
2875;BME280;1445;52.600;13.328;2023-04-27T08:12:28;101363.13;;;8.93;100.00
2875;BME280;1445;52.600;13.328;2023-04-27T08:14:54;101360.94;;;8.70;100.00
2875;BME280;1445;52.600;13.328;2023-04-27T08:17:20;101351.88;;;8.90;100.00
2875;BME280;1445;52.600;13.328;2023-04-27T08:19:48;101359.56;;;8.77;100.00
2875;BME280;1445;52.600;13.328;2023-04-27T08:22:13;101360.91;;;8.39;100.00
2875;BME280;1445;52.600;13.328;2023-04-27T08:24:38;101367.25;;;8.50;100.00
2875;BME280;1445;52.600;13.328;2023-04-27T08:27:05;101373.53;;;8.40;100.00
2875;BME280;1445;52.600;13.328;2023-04-27T08:29:30;101364.66;;;8.18;100.00
2875;BME280;1445;52.600;13.328;2023-04-27T08:31:58;101360.25;;;8.11;100.00
2875;BME280;1445;52.600;13.328;2023-04-27T08:34:25;101365.78;;;8.22;100.00
2875;BME280;1445;52.600;13.328;2023-04-27T08:36:50;101369.56;;;8.00;100.00
2875;BME280;1445;52.600;13.328;2023-04-27T08:39:16;101369.56;;;8.00;100.00
2875;BME280;1445;52.600;13.328;2023-04-27T08:41:42;101369.03;;;8.13;100.00
2875;BME280;1445;52.600;13.328;2023-04-27T08:44:08;101357.91;;;8.61;100.00
2875;BME280;1445;52.600;13.328;2023-04-27T08:46:33;101364.22;;;8.62;100.00
2875;BME280;1445;52.600;13.328;2023-04-27T08:49:01;101365.28;;;8.45;100.00
2875;BME280;1445;52.600;13.328;2023-04-27T08:51:26;101371.38;;;8.73;100.00
2875;BME280;1445;52.600;13.328;2023-04-27T08:53:54;101370.28;;;8.69;100.00
2875;BME280;1445;52.600;13.328;2023-04-27T08:56:24;101373.88;;;8.84;100.00
2875;BME280;1445;52.600;13.328;2023-04-27T08:58:51;101366.97;;;8.77;100.00
2875;BME280;1445;52.600;13.328;2023-04-27T09:01:17;101371.13;;;8.74;100.00
2875;BME280;1445;52.600;13.328;2023-04-27T09:03:42;101369.44;;;8.58;100.00
2875;BME280;1445;52.600;13.328;2023-04-27T09:06:11;101364.22;;;8.46;100.00
2875;BME280;1445;52.600;13.328;2023-04-27T09:11:10;101366.97;;;8.56;100.00
2875;BME280;1445;52.600;13.328;2023-04-27T09:13:37;101369.72;;;8.62;100.00
2875;BME280;1445;52.600;13.328;2023-04-27T09:16:02;101367.44;;;8.33;100.00
2875;BME280;1445;52.600;13.328;2023-04-27T09:18:28;101365.28;;;8.45;100.00
2875;BME280;1445;52.600;13.328;2023-04-27T09:20:54;101378.78;;;8.52;100.00
2875;BME280;1445;52.600;13.328;2023-04-27T09:25:58;101375.16;;;8.36;100.00
2875;BME280;1445;52.600;13.328;2023-04-27T09:28:25;101373.56;;;8.66;100.00
2875;BME280;1445;52.600;13.328;2023-04-27T09:30:56;101359.56;;;9.08;100.00
2875;BME280;1445;52.600;13.328;2023-04-27T09:33:26;101354.84;;;9.19;100.00
2875;BME280;1445;52.600;13.328;2023-04-27T09:35:52;101359.28;;;9.04;100.00
2875;BME280;1445;52.600;13.328;2023-04-27T09:38:19;101354.91;;;8.68;100.00
2875;BME280;1445;52.600;13.328;2023-04-27T09:40:45;101353.53;;;8.60;100.00
2875;BME280;1445;52.600;13.328;2023-04-27T09:43:11;101351.31;;;8.67;100.00
2875;BME280;1445;52.600;13.328;2023-04-27T09:45:37;101347.75;;;8.62;100.00
2875;BME280;1445;52.600;13.328;2023-04-27T09:48:04;101351.59;;;8.81;100.00
2875;BME280;1445;52.600;13.328;2023-04-27T09:50:30;101349.91;;;9.16;100.00
2875;BME280;1445;52.600;13.328;2023-04-27T09:52:55;101347.69;;;9.28;100.00
2875;BME280;1445;52.600;13.328;2023-04-27T09:55:27;101351.47;;;9.57;100.00
2875;BME280;1445;52.600;13.328;2023-04-27T10:00:56;101344.59;;;9.65;100.00
2875;BME280;1445;52.600;13.328;2023-04-27T10:03:29;101334.28;;;9.86;88.82
2875;BME280;1445;52.600;13.328;2023-04-27T10:08:33;101318.56;;;11.82;79.13
2875;BME280;1445;52.600;13.328;2023-04-27T10:10:59;101317.38;;;12.12;78.71
2875;BME280;1445;52.600;13.328;2023-04-27T10:13:25;101313.34;;;11.80;78.58
2875;BME280;1445;52.600;13.328;2023-04-27T10:15:52;101308.19;;;11.98;83.75
2875;BME280;1445;52.600;13.328;2023-04-27T10:18:25;101326.81;;;11.63;75.42
2875;BME280;1445;52.600;13.328;2023-04-27T10:20:51;101325.16;;;10.85;80.08
2875;BME280;1445;52.600;13.328;2023-04-27T10:23:26;101324.44;;;10.69;85.50
2875;BME280;1445;52.600;13.328;2023-04-27T10:25:52;101316.91;;;11.09;91.07
2875;BME280;1445;52.600;13.328;2023-04-27T10:28:18;101321.41;;;11.53;88.50
2875;BME280;1445;52.600;13.328;2023-04-27T10:30:45;101325.88;;;10.95;85.07
2875;BME280;1445;52.600;13.328;2023-04-27T10:33:16;101319.66;;;10.80;87.02
2875;BME280;1445;52.600;13.328;2023-04-27T10:35:52;101322.53;;;11.28;84.96
2875;BME280;1445;52.600;13.328;2023-04-27T10:38:19;101323.16;;;11.43;82.03
2875;BME280;1445;52.600;13.328;2023-04-27T10:40:59;101331.88;;;11.32;69.59
2875;BME280;1445;52.600;13.328;2023-04-27T10:43:30;101324.03;;;10.86;66.04
2875;BME280;1445;52.600;13.328;2023-04-27T10:46:13;101323.13;;;11.49;63.95
2875;BME280;1445;52.600;13.328;2023-04-27T10:48:42;101327.13;;;10.79;67.49
2875;BME280;1445;52.600;13.328;2023-04-27T10:51:08;101337.88;;;10.41;70.75
2875;BME280;1445;52.600;13.328;2023-04-27T10:53:37;101334.34;;;10.70;74.33
2875;BME280;1445;52.600;13.328;2023-04-27T10:56:03;101331.84;;;10.73;73.65
2875;BME280;1445;52.600;13.328;2023-04-27T10:58:32;101333.94;;;10.08;66.38
2875;BME280;1445;52.600;13.328;2023-04-27T11:00:58;101331.47;;;10.01;66.47
2875;BME280;1445;52.600;13.328;2023-04-27T11:03:23;101329.22;;;10.09;66.10
2875;BME280;1445;52.600;13.328;2023-04-27T11:06:01;101332.19;;;10.27;66.49
2875;BME280;1445;52.600;13.328;2023-04-27T11:08:26;101321.91;;;10.78;65.79
2875;BME280;1445;52.600;13.328;2023-04-27T11:10:52;101327.28;;;10.93;61.35
2875;BME280;1445;52.600;13.328;2023-04-27T11:13:19;101334.44;;;11.71;56.34
2875;BME280;1445;52.600;13.328;2023-04-27T11:15:53;101334.53;;;11.66;57.22
2875;BME280;1445;52.600;13.328;2023-04-27T11:18:20;101336.22;;;11.38;57.26
2875;BME280;1445;52.600;13.328;2023-04-27T11:20:52;101343.16;;;11.35;54.85
2875;BME280;1445;52.600;13.328;2023-04-27T11:23:30;101336.28;;;11.57;56.43
2875;BME280;1445;52.600;13.328;2023-04-27T11:31:21;101340.41;;;10.72;52.49
2875;BME280;1445;52.600;13.328;2023-04-27T11:33:47;101341.41;;;11.44;52.26
2875;BME280;1445;52.600;13.328;2023-04-27T11:36:17;101340.91;;;11.61;51.09
2875;BME280;1445;52.600;13.328;2023-04-27T11:38:43;101339.00;;;11.38;52.17
2875;BME280;1445;52.600;13.328;2023-04-27T11:41:09;101337.91;;;11.05;54.51
2875;BME280;1445;52.600;13.328;2023-04-27T11:43:38;101342.28;;;11.11;55.62
2875;BME280;1445;52.600;13.328;2023-04-27T11:46:05;101344.75;;;11.12;58.28
2875;BME280;1445;52.600;13.328;2023-04-27T11:48:37;101351.34;;;11.16;60.02
2875;BME280;1445;52.600;13.328;2023-04-27T11:51:04;101354.28;;;10.96;61.05
2875;BME280;1445;52.600;13.328;2023-04-27T11:53:35;101354.09;;;10.53;66.83
2875;BME280;1445;52.600;13.328;2023-04-27T11:56:05;101366.78;;;10.88;69.79
2875;BME280;1445;52.600;13.328;2023-04-27T11:58:36;101369.88;;;10.37;70.19
2875;BME280;1445;52.600;13.328;2023-04-27T12:01:05;101372.00;;;10.50;70.37
2875;BME280;1445;52.600;13.328;2023-04-27T12:03:31;101359.25;;;10.10;75.71
2875;BME280;1445;52.600;13.328;2023-04-27T12:05:57;101382.44;;;10.04;77.41
2875;BME280;1445;52.600;13.328;2023-04-27T12:08:22;101388.84;;;9.84;79.11
2875;BME280;1445;52.600;13.328;2023-04-27T12:10:48;101383.56;;;9.98;85.44
2875;BME280;1445;52.600;13.328;2023-04-27T12:13:15;101369.84;;;10.42;86.35
2875;BME280;1445;52.600;13.328;2023-04-27T12:15:41;101364.91;;;10.39;83.97
2875;BME280;1445;52.600;13.328;2023-04-27T12:18:07;101363.38;;;10.96;81.32
2875;BME280;1445;52.600;13.328;2023-04-27T12:20:33;101375.56;;;12.77;67.76
2875;BME280;1445;52.600;13.328;2023-04-27T12:22:59;101377.34;;;13.06;58.18
2875;BME280;1445;52.600;13.328;2023-04-27T12:25:25;101358.66;;;12.03;61.46
2875;BME280;1445;52.600;13.328;2023-04-27T12:27:50;101369.47;;;11.52;65.21
2875;BME280;1445;52.600;13.328;2023-04-27T12:30:16;101359.41;;;11.08;65.43
2875;BME280;1445;52.600;13.328;2023-04-27T12:32:41;101359.38;;;11.13;64.13
2875;BME280;1445;52.600;13.328;2023-04-27T12:35:08;101356.03;;;11.69;64.97
2875;BME280;1445;52.600;13.328;2023-04-27T12:37:35;101360.97;;;11.96;55.47
2875;BME280;1445;52.600;13.328;2023-04-27T12:40:01;101357.47;;;12.09;51.85
2875;BME280;1445;52.600;13.328;2023-04-27T12:42:30;101361.47;;;12.22;50.46
2875;BME280;1445;52.600;13.328;2023-04-27T12:44:55;101372.34;;;12.13;49.31
2875;BME280;1445;52.600;13.328;2023-04-27T12:47:21;101362.78;;;13.60;47.65
2875;BME280;1445;52.600;13.328;2023-04-27T12:49:46;101360.06;;;14.24;43.09
2875;BME280;1445;52.600;13.328;2023-04-27T12:52:12;101369.34;;;14.06;41.69
2875;BME280;1445;52.600;13.328;2023-04-27T12:54:38;101357.84;;;13.44;42.54
2875;BME280;1445;52.600;13.328;2023-04-27T12:57:03;101360.03;;;12.81;45.03
2875;BME280;1445;52.600;13.328;2023-04-27T12:59:34;101358.31;;;12.10;45.93
2875;BME280;1445;52.600;13.328;2023-04-27T13:02:00;101363.16;;;13.26;44.74
2875;BME280;1445;52.600;13.328;2023-04-27T13:04:28;101355.91;;;13.58;41.36
2875;BME280;1445;52.600;13.328;2023-04-27T13:06:54;101367.28;;;15.29;39.42
2875;BME280;1445;52.600;13.328;2023-04-27T13:09:20;101357.03;;;13.57;38.89
2875;BME280;1445;52.600;13.328;2023-04-27T13:11:45;101357.25;;;13.14;39.94